Elco, Pennsylvania
Current Conditions -  °F | °C
As of 8:53 PM on Thursday 20 Nov 2014 (Local Time) from KAGC Reporting Station
Scattered Clouds Scattered Clouds  
Wind Chill: -11°   Ceiling: Unl
Heat Index: -4°   Visibility: 10mi
Dew Point: -12°   Wind: 14mph
Humidity: 55%   Direction: 270°W
Pressure: 30.08"   Gusts: 23mph
Location:  40.08°N, 79.87°W
Report Text: KAGC 210153Z AUTO 27012G20KT 10SM SCT060 M04/M12 A3008 RMK AO2 SLP207 T10441122 TSNO
Loading
Personal Weather Stations






























Interactive Weather Map New forecast layout! Learn more

10-Day Weather Forecast

Advertisements
Track Severe Weather on mobile